createdAt,value
2019-04-22T00:01:28.930Z,49.99
2019-04-22T00:04:00.656Z,49.11
2019-04-22T00:06:48.396Z,49.14
2019-04-22T00:09:15.956Z,48.77
2019-04-22T00:11:35.441Z,49.56
2019-04-22T00:14:00.769Z,50.72
2019-04-22T00:16:43.248Z,50.51
2019-04-22T00:19:11.365Z,50.75
2019-04-22T00:21:25.791Z,50.91
2019-04-22T00:23:54.754Z,51.38
2019-04-22T00:28:49.707Z,50.50
2019-04-22T00:31:19.212Z,52.40
2019-04-22T00:33:43.792Z,54.53
2019-04-22T00:36:11.298Z,54.97
2019-04-22T00:38:38.321Z,55.24
2019-04-22T00:41:05.766Z,55.55
2019-04-22T00:43:32.993Z,55.38
2019-04-22T00:45:56.242Z,55.05
2019-04-22T00:48:29.097Z,52.04
2019-04-22T00:51:04.260Z,50.85
2019-04-22T00:53:25.314Z,49.64
2019-04-22T00:56:00.581Z,50.42
2019-04-22T00:58:29.398Z,48.90
2019-04-22T01:00:54.246Z,49.66
2019-04-22T01:03:19.649Z,50.77
2019-04-22T01:05:46.588Z,50.05
2019-04-22T01:08:15.235Z,50.79
2019-04-22T01:10:40.313Z,52.06
2019-04-22T01:13:04.758Z,54.18
2019-04-22T01:15:34.421Z,55.27
2019-04-22T01:17:57.904Z,56.41
2019-04-22T01:20:45.792Z,56.49
2019-04-22T01:22:52.816Z,56.42
2019-04-22T01:25:15.955Z,56.70
2019-04-22T01:27:41.822Z,57.02
2019-04-22T01:30:00.860Z,56.84
2019-04-22T01:32:22.877Z,58.28
2019-04-22T01:34:57.989Z,56.67
2019-04-22T01:37:29.087Z,58.07
2019-04-22T01:40:04.763Z,56.72
2019-04-22T01:42:24.486Z,55.88
2019-04-22T01:44:51.005Z,56.74
2019-04-22T01:47:29.894Z,56.45
2019-04-22T01:49:46.215Z,55.39
2019-04-22T01:52:15.787Z,55.44
2019-04-22T01:54:48.085Z,55.76
2019-04-22T01:57:03.607Z,54.97
2019-04-22T01:59:27.185Z,56.21
2019-04-22T02:02:07.041Z,57.42
2019-04-22T02:04:44.622Z,57.61
2019-04-22T02:07:00.147Z,58.34
2019-04-22T02:11:57.189Z,56.72
2019-04-22T02:14:20.367Z,56.54
2019-04-22T02:16:41.611Z,57.51
2019-04-22T02:19:11.624Z,57.17
2019-04-22T02:21:35.774Z,57.70
2019-04-22T02:24:02.645Z,58.95
2019-04-22T02:28:56.473Z,60.27
2019-04-22T02:34:09.352Z,59.15
2019-04-22T02:36:30.392Z,59.35
2019-04-22T02:41:23.047Z,58.71
2019-04-22T02:43:52.804Z,57.90
2019-04-22T02:46:23.333Z,57.75
2019-04-22T02:54:12.193Z,56.46
2019-04-22T02:56:12.186Z,56.71
2019-04-22T02:58:37.329Z,55.45
2019-04-22T03:00:58.894Z,55.44
2019-04-22T03:08:15.123Z,57.61
2019-04-22T03:10:47.406Z,57.99
2019-04-22T03:13:16.109Z,59.62
2019-04-22T03:15:29.983Z,58.72
2019-04-22T03:18:01.238Z,56.68
2019-04-22T03:20:45.992Z,56.29
2019-04-22T03:23:00.288Z,56.79
2019-04-22T03:27:40.217Z,56.42
2019-04-22T03:37:45.624Z,55.50
2019-04-22T03:40:02.487Z,56.03
2019-04-22T03:42:21.593Z,55.92
2019-04-22T03:45:01.259Z,55.06
2019-04-22T03:49:56.029Z,54.41
2019-04-22T03:54:47.698Z,53.58
2019-04-22T03:59:47.716Z,53.86
2019-04-22T04:09:24.273Z,57.34
2019-04-22T04:14:22.925Z,57.44
2019-04-22T04:16:49.901Z,56.50
2019-04-22T04:24:19.774Z,57.98
2019-04-22T04:29:02.412Z,58.38
2019-04-22T04:33:46.716Z,57.61
2019-04-22T04:46:06.917Z,58.07
2019-04-22T04:48:34.835Z,58.13
2019-04-22T04:51:11.896Z,57.41
2019-04-22T04:53:23.201Z,56.74
2019-04-22T04:55:49.131Z,56.67
2019-04-22T04:58:25.047Z,56.87
2019-04-22T05:03:16.688Z,56.12
2019-04-22T05:05:31.438Z,56.75
2019-04-22T05:10:44.858Z,55.75
2019-04-22T05:12:56.812Z,55.57
2019-04-22T05:17:55.075Z,54.68
2019-04-22T05:20:24.247Z,54.81
2019-04-22T05:22:39.669Z,54.77
2019-04-22T05:27:36.418Z,55.56
2019-04-22T05:30:23.742Z,53.85
2019-04-22T05:32:28.753Z,53.91
2019-04-22T05:35:10.263Z,55.42
2019-04-22T05:37:25.691Z,54.21
2019-04-22T05:39:44.871Z,54.50
2019-04-22T05:42:12.662Z,54.46
2019-04-22T05:44:44.078Z,53.21
2019-04-22T05:47:01.041Z,52.24
2019-04-22T05:49:28.883Z,52.34
2019-04-22T05:51:54.592Z,52.26
2019-04-22T05:54:31.281Z,52.66
2019-04-22T05:56:47.716Z,53.30
2019-04-22T05:59:22.809Z,53.44
2019-04-22T06:01:53.248Z,52.99
2019-04-22T06:04:09.879Z,52.29
2019-04-22T06:06:35.308Z,52.06
2019-04-22T06:09:05.156Z,52.58
2019-04-22T06:11:29.526Z,52.95
2019-04-22T06:13:59.317Z,51.70
2019-04-22T06:16:26.518Z,52.47
2019-04-22T06:18:56.830Z,52.34
2019-04-22T06:21:22.380Z,52.76
2019-04-22T06:23:46.864Z,52.30
2019-04-22T06:28:40.645Z,51.52
2019-04-22T06:31:12.500Z,51.60
2019-04-22T06:33:36.032Z,52.65
2019-04-22T06:36:03.717Z,52.00
2019-04-22T06:38:39.200Z,52.23
2019-04-22T06:40:55.406Z,50.73
2019-04-22T06:43:23.638Z,49.14
2019-04-22T06:45:44.856Z,49.11
2019-04-22T06:48:19.553Z,48.32
2019-04-22T06:50:56.802Z,47.99
2019-04-22T06:53:26.637Z,47.50
2019-04-22T06:55:38.925Z,46.67
2019-04-22T06:58:01.533Z,46.56
2019-04-22T07:00:43.080Z,46.83
2019-04-22T07:05:23.611Z,48.59
2019-04-22T07:07:45.355Z,46.42
2019-04-22T07:10:26.779Z,46.35
2019-04-22T07:12:41.799Z,46.41
2019-04-22T07:15:16.216Z,45.38
2019-04-22T07:17:39.331Z,45.58
2019-04-22T07:19:58.494Z,46.62
2019-04-22T07:22:31.172Z,47.30
2019-04-22T07:27:22.233Z,45.97
2019-04-22T07:29:57.741Z,45.83
2019-04-22T07:32:15.519Z,44.93
2019-04-22T07:37:23.088Z,44.43
2019-04-22T07:39:35.608Z,44.78
2019-04-22T07:41:58.617Z,44.55
2019-04-22T07:44:30.925Z,43.97
2019-04-22T07:49:26.746Z,44.82
2019-04-22T07:52:04.796Z,43.90
2019-04-22T07:54:16.275Z,43.72
2019-04-22T07:56:44.003Z,44.14
2019-04-22T07:59:09.258Z,44.24
2019-04-22T08:04:13.129Z,43.52
2019-04-22T08:06:30.962Z,44.64
2019-04-22T08:09:03.244Z,43.84
2019-04-22T08:11:37.419Z,42.46
2019-04-22T08:13:48.501Z,41.45
2019-04-22T08:16:16.394Z,42.64
2019-04-22T08:18:40.576Z,42.05
2019-04-22T08:21:12.317Z,41.78
2019-04-22T08:23:38.903Z,42.72
2019-04-22T08:26:01.739Z,41.80
2019-04-22T08:28:31.714Z,42.18
2019-04-22T08:30:59.700Z,42.63
2019-04-22T08:33:29.490Z,40.93
2019-04-22T08:36:12.012Z,41.55
2019-04-22T08:38:14.915Z,40.30
2019-04-22T08:40:50.159Z,40.75
2019-04-22T08:43:20.956Z,42.20
2019-04-22T08:45:48.098Z,40.92
2019-04-22T08:48:07.629Z,40.53
2019-04-22T08:50:33.504Z,40.44
2019-04-22T08:53:06.168Z,39.22
2019-04-22T08:55:32.929Z,38.43
2019-04-22T09:00:19.985Z,39.19
2019-04-22T09:02:53.958Z,39.27
2019-04-22T09:05:22.806Z,38.11
2019-04-22T09:07:47.005Z,36.25
2019-04-22T09:10:10.376Z,37.52
2019-04-22T09:15:01.086Z,36.31
2019-04-22T09:17:33.069Z,36.76
2019-04-22T09:20:04.680Z,36.19
2019-04-22T09:22:26.378Z,34.01
2019-04-22T09:25:03.129Z,32.82
2019-04-22T09:27:32.053Z,32.93
2019-04-22T09:29:42.977Z,32.81
2019-04-22T09:32:11.813Z,32.96
2019-04-22T09:34:39.934Z,33.32
2019-04-22T09:37:11.729Z,32.91
2019-04-22T09:39:37.521Z,32.47
2019-04-22T09:41:58.722Z,31.93
2019-04-22T09:44:34.594Z,31.12
2019-04-22T09:46:52.279Z,31.01
2019-04-22T09:49:26.666Z,31.37
2019-04-22T09:51:48.500Z,31.24
2019-04-22T09:54:22.006Z,32.82
2019-04-22T09:59:05.500Z,32.35
2019-04-22T10:02:01.212Z,32.18
2019-04-22T10:04:00.857Z,31.04
2019-04-22T10:06:36.639Z,31.37
2019-04-22T10:11:26.798Z,30.51
2019-04-22T10:16:17.575Z,29.81
2019-04-22T10:18:46.406Z,30.50
2019-04-22T10:21:08.682Z,30.40
2019-04-22T10:23:31.616Z,31.25
2019-04-22T10:26:04.840Z,31.25
2019-04-22T10:28:35.582Z,31.80
2019-04-22T10:30:53.458Z,30.42
2019-04-22T10:33:16.235Z,30.64
2019-04-22T10:35:26.744Z,32.01
2019-04-22T10:37:50.487Z,31.17
2019-04-22T10:40:25.732Z,31.08
2019-04-22T10:42:51.665Z,31.53
2019-04-22T10:45:18.549Z,30.44
2019-04-22T10:47:45.836Z,31.68
2019-04-22T10:50:12.276Z,30.14
2019-04-22T10:52:39.373Z,30.13
2019-04-22T10:55:05.541Z,31.21
2019-04-22T10:57:32.290Z,29.53
2019-04-22T10:59:59.019Z,29.27
2019-04-22T11:02:25.758Z,30.51
2019-04-22T11:04:52.492Z,29.97
2019-04-22T11:07:24.631Z,31.94
2019-04-22T11:09:54.862Z,32.33
2019-04-22T11:12:17.663Z,32.49
2019-04-22T11:14:42.760Z,31.75
2019-04-22T11:17:07.435Z,31.11
2019-04-22T11:19:33.068Z,31.02
2019-04-22T11:22:07.644Z,31.09
2019-04-22T11:24:26.804Z,30.56
2019-04-22T11:26:54.801Z,32.16
2019-04-22T11:29:21.398Z,31.37
2019-04-22T11:31:48.276Z,32.05
2019-04-22T11:34:15.355Z,31.76
2019-04-22T11:36:40.919Z,31.53
2019-04-22T11:39:10.778Z,30.95
2019-04-22T11:41:35.991Z,33.13
2019-04-22T11:44:01.352Z,33.20
2019-04-22T11:46:29.359Z,30.78
2019-04-22T11:48:55.918Z,30.85
2019-04-22T11:51:22.115Z,30.20
2019-04-22T11:53:49.125Z,31.54
2019-04-22T11:56:14.885Z,30.25
2019-04-22T11:58:42.570Z,29.73
2019-04-22T12:01:08.675Z,29.00
2019-04-22T12:03:35.766Z,28.83
2019-04-22T12:06:02.188Z,29.81
2019-04-22T12:08:29.100Z,30.95
2019-04-22T12:11:00.088Z,29.87
2019-04-22T12:13:22.390Z,30.32
2019-04-22T12:15:49.183Z,29.44
2019-04-22T12:18:17.211Z,30.08
2019-04-22T12:20:43.378Z,29.17
2019-04-22T12:23:09.537Z,31.79
2019-04-22T12:25:47.631Z,30.60
2019-04-22T12:28:03.301Z,30.76
2019-04-22T12:30:29.858Z,30.05
2019-04-22T12:32:56.326Z,30.81
2019-04-22T12:35:24.280Z,30.28
2019-04-22T12:37:55.624Z,29.61
2019-04-22T12:40:29.433Z,29.44
2019-04-22T12:42:43.286Z,30.67
2019-04-22T12:45:10.051Z,30.55
2019-04-22T12:47:38.088Z,30.04
2019-04-22T12:50:12.359Z,30.58
2019-04-22T12:52:37.382Z,30.45
2019-04-22T12:54:57.370Z,28.13
2019-04-22T12:57:24.906Z,29.46
2019-04-22T12:59:50.654Z,28.73
2019-04-22T13:02:18.696Z,29.75
2019-04-22T13:04:44.134Z,29.76
2019-04-22T13:07:11.558Z,27.49
2019-04-22T13:09:38.957Z,29.06
2019-04-22T13:12:04.354Z,27.87
2019-04-22T13:14:31.110Z,27.13
2019-04-22T13:16:59.782Z,26.27
2019-04-22T13:19:28.020Z,25.87
2019-04-22T13:21:52.335Z,26.50
2019-04-22T13:24:20.101Z,26.37
2019-04-22T13:26:45.836Z,27.05
2019-04-22T13:29:12.892Z,26.03
2019-04-22T13:31:40.444Z,26.39
2019-04-22T13:34:13.289Z,26.14
2019-04-22T13:36:32.818Z,27.18
2019-04-22T13:39:00.749Z,27.32
2019-04-22T13:41:35.674Z,25.96
2019-04-22T13:43:53.857Z,27.49
2019-04-22T13:46:20.082Z,27.13
2019-04-22T13:49:14.679Z,26.90
2019-04-22T13:51:46.179Z,26.41
2019-04-22T13:54:37.214Z,26.91
2019-04-22T13:56:23.824Z,26.61
2019-04-22T13:58:48.555Z,24.76
2019-04-22T14:01:04.862Z,25.91
2019-04-22T14:03:50.084Z,25.08
2019-04-22T14:06:16.821Z,24.94
2019-04-22T14:08:45.086Z,23.95
2019-04-22T14:11:25.310Z,25.03
2019-04-22T14:13:37.758Z,24.04
2019-04-22T14:16:04.784Z,24.01
2019-04-22T14:18:30.834Z,24.66
2019-04-22T14:20:58.716Z,24.90
2019-04-22T14:23:24.675Z,23.55
2019-04-22T14:25:50.926Z,24.68
2019-04-22T14:28:19.385Z,24.60
2019-04-22T14:30:44.429Z,24.25
2019-04-22T14:33:12.109Z,22.43
2019-04-22T14:35:38.460Z,22.94
2019-04-22T14:38:06.312Z,25.04
2019-04-22T14:40:32.943Z,24.44
2019-04-22T14:44:43.033Z,25.04
2019-04-22T14:46:01.681Z,23.76
2019-04-22T14:48:19.924Z,25.38
2019-04-22T14:50:41.915Z,24.47
2019-04-22T14:53:04.102Z,23.73
2019-04-22T14:55:17.461Z,23.42
2019-04-22T14:57:40.399Z,23.76
2019-04-22T15:00:06.141Z,23.25
2019-04-22T15:02:33.873Z,23.49
2019-04-22T15:05:00.547Z,23.69
2019-04-22T15:07:26.062Z,24.28
2019-04-22T15:09:52.783Z,24.60
2019-04-22T15:12:30.112Z,24.55
2019-04-22T15:14:47.827Z,23.76
2019-04-22T15:17:24.948Z,23.48
2019-04-22T15:19:58.065Z,24.17
2019-04-22T15:22:24.046Z,24.29
2019-04-22T15:24:52.313Z,24.49
2019-04-22T15:27:18.461Z,24.95
2019-04-22T15:29:45.141Z,23.64
2019-04-22T15:32:11.720Z,25.06
2019-04-22T15:34:39.401Z,24.88
2019-04-22T15:37:06.088Z,24.21
2019-04-22T15:39:31.641Z,25.32
2019-04-22T15:42:09.755Z,25.43
2019-04-22T15:44:26.067Z,25.32
2019-04-22T15:46:53.064Z,24.50
2019-04-22T15:49:20.022Z,24.95
2019-04-22T15:51:46.749Z,24.61
2019-04-22T15:54:12.167Z,24.99
2019-04-22T15:56:39.118Z,25.48
2019-04-22T15:59:17.234Z,25.27
2019-04-22T16:01:36.997Z,24.98
2019-04-22T16:04:00.391Z,25.19
2019-04-22T16:06:26.342Z,26.23
2019-04-22T16:08:54.043Z,26.02
2019-04-22T16:11:20.005Z,25.71
2019-04-22T16:13:46.618Z,25.18
2019-04-22T16:16:14.435Z,26.91
2019-04-22T16:18:40.329Z,25.69
2019-04-22T16:21:07.151Z,24.93
2019-04-22T16:23:38.649Z,25.70
2019-04-22T16:26:13.564Z,26.35
2019-04-22T16:28:39.789Z,26.46
2019-04-22T16:31:07.197Z,26.64
2019-04-22T16:33:36.458Z,25.65
2019-04-22T16:36:00.581Z,26.38
2019-04-22T16:38:26.961Z,28.01
2019-04-22T16:40:54.723Z,27.90
2019-04-22T16:43:20.417Z,27.87
2019-04-22T16:45:49.533Z,28.15
2019-04-22T16:48:15.774Z,28.15
2019-04-22T16:50:43.655Z,28.61
2019-04-22T16:53:08.481Z,28.41
2019-04-22T16:55:35.170Z,28.32
2019-04-22T16:58:03.182Z,29.31
2019-04-22T17:00:28.881Z,28.88
2019-04-22T17:03:08.876Z,28.63
2019-04-22T17:05:41.396Z,27.77
2019-04-22T17:08:08.190Z,27.68
2019-04-22T17:10:34.006Z,26.28
2019-04-22T17:13:07.241Z,26.54
2019-04-22T17:15:29.115Z,27.37
2019-04-22T17:17:54.944Z,28.21
2019-04-22T17:20:27.180Z,29.54
2019-04-22T17:22:53.759Z,28.67
2019-04-22T17:25:20.597Z,29.36
2019-04-22T17:27:47.506Z,29.06
2019-04-22T17:30:14.702Z,28.72
2019-04-22T17:32:43.266Z,29.05
2019-04-22T17:35:08.342Z,29.49
2019-04-22T17:37:37.119Z,30.66
2019-04-22T17:40:15.853Z,30.20
2019-04-22T17:42:46.189Z,31.19
2019-04-22T17:45:28.447Z,31.23
2019-04-22T17:47:49.341Z,31.59
2019-04-22T17:50:27.524Z,33.12
2019-04-22T17:52:54.860Z,32.34
2019-04-22T17:55:11.433Z,32.63
2019-04-22T17:57:38.085Z,32.74
2019-04-22T18:00:07.047Z,32.84
2019-04-22T18:02:32.354Z,33.24
2019-04-22T18:04:49.619Z,32.52
2019-04-22T18:07:45.282Z,33.64
2019-04-22T18:12:35.772Z,33.08
2019-04-22T18:14:56.803Z,32.10
2019-04-22T18:17:19.453Z,32.54
2019-04-22T18:19:40.212Z,33.86
2019-04-22T18:22:03.674Z,33.41
2019-04-22T18:24:26.553Z,34.18
2019-04-22T18:27:17.053Z,35.66
2019-04-22T18:29:31.054Z,35.02
2019-04-22T18:31:47.858Z,33.86
2019-04-22T18:34:15.838Z,34.65
2019-04-22T18:36:45.732Z,35.16
2019-04-22T18:39:25.290Z,36.29
2019-04-22T18:41:47.217Z,36.08
2019-04-22T18:44:11.484Z,35.79
2019-04-22T18:46:36.579Z,36.26
2019-04-22T18:49:03.392Z,36.90
2019-04-22T18:51:40.271Z,35.87
2019-04-22T18:54:13.434Z,36.39
2019-04-22T18:56:37.358Z,36.27
2019-04-22T18:58:55.856Z,35.84
2019-04-22T19:01:12.465Z,36.49
2019-04-22T19:03:51.754Z,36.41
2019-04-22T19:06:34.160Z,36.42
2019-04-22T19:09:01.760Z,36.25
2019-04-22T19:11:16.720Z,36.90
2019-04-22T19:16:25.581Z,36.15
2019-04-22T19:19:09.988Z,36.82
2019-04-22T19:21:16.026Z,36.56
2019-04-22T19:23:31.899Z,36.55
2019-04-22T19:26:01.754Z,36.35
2019-04-22T19:30:57.802Z,37.32
2019-04-22T19:33:23.638Z,36.50
2019-04-22T19:35:44.238Z,36.75
2019-04-22T19:38:05.315Z,37.02
2019-04-22T19:40:47.914Z,36.78
2019-04-22T19:43:09.020Z,37.28
2019-04-22T19:45:32.770Z,37.73
2019-04-22T19:48:03.658Z,37.41
2019-04-22T19:50:27.435Z,36.88
2019-04-22T19:53:01.685Z,36.66
2019-04-22T19:55:23.819Z,38.08
2019-04-22T19:57:52.575Z,38.57
2019-04-22T20:00:14.460Z,38.96
2019-04-22T20:03:05.375Z,39.57
2019-04-22T20:05:41.527Z,39.08
2019-04-22T20:07:51.286Z,38.55
2019-04-22T20:10:26.463Z,38.43
2019-04-22T20:12:50.047Z,38.82
2019-04-22T20:15:15.611Z,38.32
2019-04-22T20:18:00.563Z,38.50
2019-04-22T20:20:19.080Z,38.08
2019-04-22T20:22:37.436Z,39.08
2019-04-22T20:24:53.797Z,38.95
2019-04-22T20:27:36.516Z,39.51
2019-04-22T20:30:02.404Z,38.56
2019-04-22T20:32:29.248Z,39.66
2019-04-22T20:34:59.554Z,39.71
2019-04-22T20:37:39.939Z,39.25
2019-04-22T20:39:48.782Z,38.69
2019-04-22T20:44:47.333Z,37.80
2019-04-22T20:47:04.431Z,38.44
2019-04-22T20:49:38.372Z,38.75
2019-04-22T20:52:14.128Z,37.97
2019-04-22T20:54:28.412Z,38.68
2019-04-22T20:56:49.234Z,38.67
2019-04-22T20:59:19.051Z,37.98
2019-04-22T21:01:43.273Z,38.47
2019-04-22T21:04:00.888Z,38.61
2019-04-22T21:06:38.409Z,38.11
2019-04-22T21:09:12.033Z,39.07
2019-04-22T21:11:34.625Z,38.91
2019-04-22T21:14:04.422Z,38.61
2019-04-22T21:16:34.752Z,38.77
2019-04-22T21:18:47.376Z,38.91
2019-04-22T21:21:29.652Z,38.94
2019-04-22T21:23:44.955Z,38.77
2019-04-22T21:26:13.988Z,39.04
2019-04-22T21:28:43.757Z,39.57
2019-04-22T21:31:14.472Z,39.22
2019-04-22T21:33:36.411Z,39.57
2019-04-22T21:38:33.167Z,39.66
2019-04-22T21:40:56.681Z,39.87
2019-04-22T21:43:25.576Z,38.78
2019-04-22T21:45:53.119Z,38.96
2019-04-22T21:48:27.942Z,38.94
2019-04-22T21:53:14.499Z,39.36
2019-04-22T21:55:43.779Z,40.13
2019-04-22T21:58:13.076Z,39.84
2019-04-22T22:00:53.485Z,40.48
2019-04-22T22:03:11.680Z,39.71
2019-04-22T22:05:28.756Z,39.61
2019-04-22T22:07:48.108Z,39.63
2019-04-22T22:10:29.490Z,40.15
2019-04-22T22:12:54.955Z,40.87
2019-04-22T22:15:22.496Z,40.45
2019-04-22T22:17:42.964Z,39.99
2019-04-22T22:20:10.598Z,40.51
2019-04-22T22:23:00.553Z,40.10
2019-04-22T22:25:10.577Z,40.54
2019-04-22T22:27:37.503Z,39.85
2019-04-22T22:32:32.048Z,40.88
2019-04-22T22:35:00.390Z,40.91
2019-04-22T22:37:12.137Z,41.05
2019-04-22T22:39:39.235Z,40.55
2019-04-22T22:41:54.230Z,40.14
2019-04-22T22:44:29.488Z,39.72
2019-04-22T22:47:03.522Z,39.46
2019-04-22T22:49:33.400Z,39.28
2019-04-22T22:52:26.166Z,40.63
2019-04-22T22:54:33.067Z,41.11
2019-04-22T22:57:16.844Z,41.08
2019-04-22T22:59:23.680Z,40.42
2019-04-22T23:02:04.375Z,40.30
2019-04-22T23:04:16.210Z,40.07
2019-04-22T23:06:44.389Z,40.59
2019-04-22T23:09:10.096Z,40.93
2019-04-22T23:11:52.057Z,40.72
2019-04-22T23:14:02.409Z,41.43
2019-04-22T23:16:20.210Z,41.33
2019-04-22T23:18:55.394Z,39.64
2019-04-22T23:21:29.103Z,40.27
2019-04-22T23:24:05.751Z,40.91
2019-04-22T23:26:40.394Z,40.67
2019-04-22T23:29:06.186Z,40.66
2019-04-22T23:31:35.517Z,41.12
2019-04-22T23:34:09.235Z,40.46
2019-04-22T23:36:42.431Z,40.24
2019-04-22T23:39:20.287Z,40.11
2019-04-22T23:41:47.642Z,40.73
2019-04-22T23:46:37.921Z,40.42
2019-04-22T23:49:04.561Z,40.19
2019-04-22T23:51:39.626Z,40.96
2019-04-22T23:54:07.052Z,40.42
2019-04-22T23:56:28.183Z,41.03
2019-04-22T23:59:05.111Z,41.06
